createdAt,value
2018-06-23T00:00:17.582Z,70.20
2018-06-23T00:02:46.409Z,70.30
2018-06-23T00:05:15.353Z,70.30
2018-06-23T00:07:44.129Z,70.20
2018-06-23T00:15:38.320Z,71.30
2018-06-23T00:18:07.101Z,70.30
2018-06-23T00:20:35.892Z,70.30
2018-06-23T00:23:04.689Z,70.40
2018-06-23T00:25:39.013Z,70.20
2018-06-23T00:28:07.800Z,70.30
2018-06-23T00:30:36.624Z,70.20
2018-06-23T00:33:05.381Z,71.10
2018-06-23T00:35:34.161Z,71.00
2018-06-23T00:38:02.944Z,70.90
2018-06-23T00:40:31.753Z,72.30
2018-06-23T00:43:00.522Z,72.20
2018-06-23T00:45:29.309Z,72.80
2018-06-23T00:47:58.105Z,72.10
2018-06-23T00:50:27.172Z,72.70
2018-06-23T00:52:55.925Z,73.40
2018-06-23T00:55:24.703Z,73.80
2018-06-23T01:00:22.085Z,74.00
2018-06-23T01:02:50.857Z,74.10
2018-06-23T01:07:48.114Z,73.60
2018-06-23T01:10:16.889Z,73.80
2018-06-23T01:12:45.677Z,74.50
2018-06-23T01:15:14.489Z,73.80
2018-06-23T01:20:11.814Z,74.10
2018-06-23T01:22:40.596Z,74.50
2018-06-23T01:25:09.381Z,75.20
2018-06-23T01:27:38.133Z,75.60
2018-06-23T01:30:07.248Z,76.10
2018-06-23T01:32:36.041Z,76.10
2018-06-23T01:35:04.889Z,76.70
2018-06-23T01:37:33.661Z,76.80
2018-06-23T01:40:02.446Z,77.30
2018-06-23T01:42:31.236Z,77.50
2018-06-23T01:45:00.033Z,78.30
2018-06-23T01:47:28.861Z,79.00
2018-06-23T01:49:57.671Z,79.50
2018-06-23T01:52:26.454Z,79.70
2018-06-23T01:54:55.255Z,80.10
2018-06-23T01:57:24.014Z,80.60
2018-06-23T01:59:52.802Z,79.40
2018-06-23T02:02:21.716Z,79.60
2018-06-23T02:04:50.476Z,80.20
2018-06-23T02:07:19.269Z,79.60
2018-06-23T02:09:48.313Z,80.00
2018-06-23T02:12:17.098Z,80.20
2018-06-23T02:14:51.397Z,80.00
2018-06-23T02:18:27.538Z,80.50
2018-06-23T02:21:01.584Z,80.70
2018-06-23T02:23:36.049Z,80.70
2018-06-23T02:26:10.181Z,80.70
2018-06-23T02:31:18.550Z,81.20
2018-06-23T02:33:52.720Z,81.20
2018-06-23T02:38:50.005Z,81.20
2018-06-23T02:41:18.833Z,82.00
2018-06-23T02:43:47.604Z,82.10
2018-06-23T02:46:16.377Z,83.40
2018-06-23T02:48:45.139Z,84.20
2018-06-23T02:53:42.505Z,84.10
2018-06-23T02:56:11.294Z,86.00
2018-06-23T02:58:40.062Z,86.70
2018-06-23T03:01:08.851Z,86.40
2018-06-23T03:03:37.637Z,86.20
2018-06-23T03:06:06.454Z,86.00
2018-06-23T03:08:35.213Z,85.70
2018-06-23T03:11:04.285Z,85.80
2018-06-23T03:13:33.277Z,85.90
2018-06-23T03:16:02.061Z,84.70
2018-06-23T03:18:30.821Z,85.10
2018-06-23T03:23:28.077Z,84.40
2018-06-23T03:33:22.334Z,84.00
2018-06-23T03:35:51.257Z,85.20
2018-06-23T03:38:20.457Z,84.80
2018-06-23T03:40:49.230Z,85.50
2018-06-23T03:43:18.013Z,86.40
2018-06-23T03:45:47.485Z,86.40
2018-06-23T03:50:44.877Z,86.60
2018-06-23T03:53:14.097Z,86.90
2018-06-23T03:55:42.861Z,87.50
2018-06-23T03:58:11.628Z,88.80
2018-06-23T04:05:44.653Z,89.00
2018-06-23T04:08:13.666Z,88.70
2018-06-23T04:10:42.657Z,88.60
2018-06-23T04:15:39.918Z,87.40
2018-06-23T04:18:08.704Z,87.30
2018-06-23T04:23:05.977Z,83.90
2018-06-23T04:25:34.749Z,83.60
2018-06-23T04:28:03.527Z,82.60
2018-06-23T04:30:32.418Z,81.90
2018-06-23T04:33:01.221Z,80.40
2018-06-23T04:35:29.995Z,79.70
2018-06-23T04:37:58.769Z,79.30
2018-06-23T04:40:27.549Z,78.80
2018-06-23T04:42:56.347Z,79.10
2018-06-23T04:45:25.106Z,78.90
2018-06-23T04:47:54.078Z,78.70
2018-06-23T04:50:22.829Z,79.70
2018-06-23T04:52:51.626Z,80.40
2018-06-23T04:55:20.385Z,80.60
2018-06-23T04:57:49.166Z,80.90
2018-06-23T05:00:19.436Z,80.90
2018-06-23T05:05:16.797Z,82.20
2018-06-23T05:07:45.760Z,82.90
2018-06-23T05:10:14.533Z,83.80
2018-06-23T05:15:11.862Z,84.30
2018-06-23T05:17:40.624Z,85.70
2018-06-23T05:20:09.452Z,85.40
2018-06-23T05:22:38.641Z,85.00
2018-06-23T05:27:35.893Z,84.90
2018-06-23T05:30:05.249Z,85.30
2018-06-23T05:32:34.026Z,84.30
2018-06-23T05:35:02.775Z,83.60
2018-06-23T05:40:00.697Z,80.30
2018-06-23T05:42:29.445Z,79.90
2018-06-23T05:44:58.236Z,79.90
2018-06-23T05:47:26.993Z,78.30
2018-06-23T05:49:55.765Z,75.50
2018-06-23T05:52:24.529Z,76.00
2018-06-23T05:54:53.296Z,76.00
2018-06-23T06:02:19.237Z,73.90
2018-06-23T06:04:48.049Z,74.70
2018-06-23T06:07:16.837Z,81.10
2018-06-23T06:12:14.082Z,82.70
2018-06-23T06:14:42.873Z,79.80
2018-06-23T06:17:26.633Z,80.10
2018-06-23T06:19:56.471Z,76.00
2018-06-23T06:22:27.303Z,73.90
2018-06-23T06:24:56.249Z,72.50
2018-06-23T06:27:25.177Z,69.50
2018-06-23T06:29:54.686Z,68.20
2018-06-23T06:32:23.905Z,66.50
2018-06-23T06:34:52.693Z,67.00
2018-06-23T06:37:21.481Z,65.90
2018-06-23T06:39:50.247Z,61.30
2018-06-23T06:42:19.020Z,62.90
2018-06-23T06:44:47.810Z,62.30
2018-06-23T06:47:17.657Z,61.80
2018-06-23T06:49:46.481Z,61.40
2018-06-23T06:52:15.258Z,60.10
2018-06-23T06:54:44.257Z,59.60
2018-06-23T06:57:13.112Z,59.40
2018-06-23T06:59:41.849Z,58.60
2018-06-23T07:02:10.621Z,58.80
2018-06-23T07:04:39.821Z,60.00
2018-06-23T07:07:08.618Z,58.60
2018-06-23T07:09:37.442Z,54.80
2018-06-23T07:12:06.432Z,56.00
2018-06-23T07:14:35.221Z,53.40
2018-06-23T07:17:04.002Z,53.30
2018-06-23T07:19:32.813Z,53.70
2018-06-23T07:22:01.571Z,53.80
2018-06-23T07:24:30.349Z,52.90
2018-06-23T07:26:59.189Z,52.40
2018-06-23T07:29:27.929Z,50.60
2018-06-23T07:31:56.697Z,49.30
2018-06-23T07:34:25.515Z,50.80
2018-06-23T07:36:54.216Z,50.70
2018-06-23T07:39:22.986Z,50.60
2018-06-23T07:41:51.749Z,51.70
2018-06-23T07:44:20.533Z,51.20
2018-06-23T07:46:49.566Z,45.40
2018-06-23T07:49:18.325Z,43.20
2018-06-23T07:51:47.108Z,40.20
2018-06-23T07:54:15.901Z,40.30
2018-06-23T07:56:44.664Z,41.50
2018-06-23T07:59:13.433Z,39.50
2018-06-23T08:01:42.262Z,34.70
2018-06-23T08:04:10.978Z,37.10
2018-06-23T08:06:39.761Z,41.00
2018-06-23T08:09:09.215Z,33.60
2018-06-23T08:11:38.069Z,34.90
2018-06-23T08:14:06.797Z,33.80
2018-06-23T08:16:35.718Z,32.50
2018-06-23T08:19:04.539Z,34.30
2018-06-23T08:21:33.305Z,29.60
2018-06-23T08:24:02.085Z,29.90
2018-06-23T08:26:31.068Z,34.90
2018-06-23T08:28:59.785Z,40.40
2018-06-23T08:31:28.957Z,43.50
2018-06-23T08:33:57.789Z,45.20
2018-06-23T08:36:26.618Z,41.90
2018-06-23T08:38:55.365Z,40.00
2018-06-23T08:41:24.188Z,39.20
2018-06-23T08:43:53.034Z,37.90
2018-06-23T08:46:21.834Z,33.90
2018-06-23T08:48:50.697Z,36.00
2018-06-23T08:51:19.802Z,38.40
2018-06-23T08:53:48.581Z,38.90
2018-06-23T08:56:17.381Z,38.30
2018-06-23T08:58:46.141Z,38.10
2018-06-23T09:01:14.958Z,38.00
2018-06-23T09:03:43.813Z,39.30
2018-06-23T09:06:12.613Z,37.20
2018-06-23T09:08:41.389Z,39.40
2018-06-23T09:11:10.221Z,46.10
2018-06-23T09:13:39.052Z,50.00
2018-06-23T09:16:07.770Z,44.90
2018-06-23T09:18:36.585Z,41.10
2018-06-23T09:23:34.066Z,38.60
2018-06-23T09:26:02.858Z,35.80
2018-06-23T09:28:31.662Z,34.60
2018-06-23T09:31:00.477Z,33.50
2018-06-23T09:33:29.226Z,35.50
2018-06-23T09:40:55.181Z,41.80
2018-06-23T09:48:21.205Z,40.00
2018-06-23T09:50:50.021Z,38.00
2018-06-23T09:53:18.901Z,33.30
2018-06-23T09:55:47.753Z,31.60
2018-06-23T10:00:44.966Z,33.90
2018-06-23T10:03:13.766Z,36.90
2018-06-23T10:05:42.547Z,40.20
2018-06-23T10:08:11.326Z,42.00
2018-06-23T10:10:40.129Z,42.20
2018-06-23T10:18:06.039Z,38.30
2018-06-23T10:20:34.809Z,37.30
2018-06-23T10:23:03.582Z,39.00
2018-06-23T10:25:32.354Z,40.40
2018-06-23T10:28:01.330Z,41.60
2018-06-23T10:30:30.118Z,42.30
2018-06-23T10:32:58.899Z,45.20
2018-06-23T10:35:27.668Z,44.30
2018-06-23T10:37:56.473Z,43.70
2018-06-23T10:40:25.257Z,42.80
2018-06-23T10:42:54.076Z,41.30
2018-06-23T10:47:51.338Z,38.50
2018-06-23T10:50:20.091Z,35.70
2018-06-23T10:52:48.912Z,33.50
2018-06-23T10:55:17.709Z,32.40
2018-06-23T11:00:15.082Z,36.80
2018-06-23T11:05:12.358Z,41.10
2018-06-23T11:07:41.136Z,39.20
2018-06-23T11:12:38.533Z,45.60
2018-06-23T11:15:07.341Z,45.10
2018-06-23T11:17:36.129Z,46.90
2018-06-23T11:20:05.153Z,46.10
2018-06-23T11:22:33.964Z,44.50
2018-06-23T11:25:02.792Z,44.30
2018-06-23T11:27:31.580Z,43.20
2018-06-23T11:30:00.353Z,41.90
2018-06-23T11:32:29.381Z,42.10
2018-06-23T11:34:58.267Z,41.30
2018-06-23T11:37:27.053Z,40.40
2018-06-23T11:39:55.982Z,42.80
2018-06-23T11:42:24.830Z,42.70
2018-06-23T11:44:53.809Z,46.80
2018-06-23T11:47:22.585Z,46.50
2018-06-23T11:49:52.009Z,45.20
2018-06-23T11:52:20.847Z,43.90
2018-06-23T11:54:49.601Z,42.50
2018-06-23T11:57:19.312Z,41.90
2018-06-23T11:59:48.614Z,42.40
2018-06-23T12:02:18.825Z,41.90
2018-06-23T12:04:48.193Z,41.20
2018-06-23T12:09:45.506Z,43.70
2018-06-23T12:12:14.285Z,44.30
2018-06-23T12:14:43.128Z,45.50
2018-06-23T12:17:11.929Z,49.60
2018-06-23T12:22:09.309Z,47.30
2018-06-23T12:24:38.182Z,46.00
2018-06-23T12:27:07.649Z,45.30
2018-06-23T12:29:36.429Z,45.70
2018-06-23T12:32:05.193Z,47.90
2018-06-23T12:34:34.177Z,47.90
2018-06-23T12:37:02.942Z,47.70
2018-06-23T12:39:31.705Z,48.30
2018-06-23T12:42:00.608Z,48.10
2018-06-23T12:44:29.537Z,48.40
2018-06-23T12:46:58.622Z,53.30
2018-06-23T12:49:27.374Z,55.20
2018-06-23T12:51:56.307Z,58.10
2018-06-23T12:54:25.397Z,59.40
2018-06-23T12:56:54.361Z,61.10
2018-06-23T12:59:23.361Z,62.50
2018-06-23T13:01:52.109Z,64.50
2018-06-23T13:04:21.024Z,62.70
2018-06-23T13:06:49.808Z,64.70
2018-06-23T13:09:18.569Z,61.80
2018-06-23T13:11:47.317Z,62.00
2018-06-23T13:14:16.090Z,61.80
2018-06-23T13:16:44.838Z,63.10
2018-06-23T13:19:14.273Z,60.90
2018-06-23T13:21:43.041Z,61.60
2018-06-23T13:24:11.801Z,61.70
2018-06-23T13:26:40.561Z,65.50
2018-06-23T13:29:09.385Z,68.70
2018-06-23T13:31:38.136Z,71.90
2018-06-23T13:34:06.982Z,74.50
2018-06-23T13:36:35.722Z,74.70
2018-06-23T13:39:07.173Z,73.40
2018-06-23T13:41:36.068Z,72.40
2018-06-23T13:44:04.818Z,69.10
2018-06-23T13:46:33.792Z,67.50
2018-06-23T13:49:02.676Z,68.60
2018-06-23T13:51:31.466Z,69.80
2018-06-23T13:54:00.360Z,77.00
2018-06-23T13:56:29.112Z,78.30
2018-06-23T13:58:57.887Z,81.00
2018-06-23T14:01:26.630Z,80.20
2018-06-23T14:03:55.788Z,78.50
2018-06-23T14:06:24.550Z,80.40
2018-06-23T14:08:53.383Z,78.20
2018-06-23T14:11:22.693Z,78.90
2018-06-23T14:13:51.465Z,80.80
2018-06-23T14:16:20.213Z,85.70
2018-06-23T14:18:48.980Z,85.20
2018-06-23T14:21:17.733Z,83.70
2018-06-23T14:23:46.495Z,86.40
2018-06-23T14:26:15.253Z,86.60
2018-06-23T14:28:44.013Z,84.80
2018-06-23T14:31:12.761Z,87.10
2018-06-23T14:33:41.556Z,86.20
2018-06-23T14:36:10.302Z,84.70
2018-06-23T14:38:39.080Z,85.00
2018-06-23T14:41:07.841Z,83.70
2018-06-23T14:43:36.680Z,84.30
2018-06-23T14:46:05.457Z,82.90
2018-06-23T14:48:34.420Z,83.50
2018-06-23T14:51:03.190Z,88.30
2018-06-23T14:53:31.985Z,87.70
2018-06-23T14:56:00.729Z,90.20
2018-06-23T14:58:29.513Z,88.70
2018-06-23T15:00:58.289Z,84.60
2018-06-23T15:03:27.069Z,87.60
2018-06-23T15:05:55.894Z,86.80
2018-06-23T15:08:35.998Z,89.90
2018-06-23T15:11:16.105Z,87.90
2018-06-23T15:13:44.841Z,87.40
2018-06-23T15:16:13.604Z,88.90
2018-06-23T15:18:42.441Z,87.70
2018-06-23T15:21:11.232Z,88.10
2018-06-23T15:23:39.994Z,86.00
2018-06-23T15:26:08.828Z,87.30
2018-06-23T15:28:37.650Z,86.20
2018-06-23T15:31:06.412Z,84.60
2018-06-23T15:33:35.247Z,84.00
2018-06-23T15:36:03.972Z,82.40
2018-06-23T15:38:32.982Z,81.00
2018-06-23T15:41:01.733Z,81.60
2018-06-23T15:43:30.506Z,80.90
2018-06-23T15:45:59.257Z,82.20
2018-06-23T15:48:28.010Z,81.70
2018-06-23T15:50:56.853Z,81.20
2018-06-23T15:53:25.613Z,82.20
2018-06-23T15:55:54.425Z,83.60
2018-06-23T15:58:23.365Z,86.00
2018-06-23T16:00:52.133Z,87.90
2018-06-23T16:03:20.880Z,86.70
2018-06-23T16:05:49.661Z,84.90
2018-06-23T16:08:18.466Z,86.00
2018-06-23T16:10:47.293Z,86.00
2018-06-23T16:13:16.037Z,84.50
2018-06-23T16:15:44.802Z,84.20
2018-06-23T16:18:13.549Z,85.90
2018-06-23T16:20:42.301Z,88.00
2018-06-23T16:23:11.055Z,88.50
2018-06-23T16:25:39.813Z,89.70
2018-06-23T16:28:08.576Z,89.40
2018-06-23T16:30:37.344Z,91.00
2018-06-23T16:33:06.134Z,90.80
2018-06-23T16:35:34.897Z,90.10
2018-06-23T16:38:03.757Z,91.40
2018-06-23T16:40:32.793Z,91.60
2018-06-23T16:43:01.625Z,91.60
2018-06-23T16:45:30.394Z,91.30
2018-06-23T16:47:59.145Z,91.50
2018-06-23T16:50:27.917Z,91.50
2018-06-23T16:52:56.663Z,90.10
2018-06-23T16:55:25.441Z,90.30
2018-06-23T16:57:54.213Z,90.60
2018-06-23T17:00:22.973Z,91.10
2018-06-23T17:02:51.765Z,90.50
2018-06-23T17:05:20.570Z,90.70
2018-06-23T17:07:49.329Z,91.30
2018-06-23T17:10:18.090Z,92.00
2018-06-23T17:12:46.977Z,92.30
2018-06-23T17:15:15.819Z,92.00
2018-06-23T17:17:44.508Z,92.70
2018-06-23T17:20:13.394Z,92.80
2018-06-23T17:22:42.174Z,93.00
2018-06-23T17:25:10.909Z,93.40
2018-06-23T17:27:39.713Z,92.50
2018-06-23T17:30:08.492Z,92.90
2018-06-23T17:32:37.253Z,92.70
2018-06-23T17:35:06.037Z,92.90
2018-06-23T17:37:34.823Z,92.80
2018-06-23T17:40:03.615Z,92.80
2018-06-23T17:42:32.381Z,92.90
2018-06-23T17:45:01.129Z,93.10
2018-06-23T17:47:29.912Z,93.70
2018-06-23T17:49:58.674Z,93.90
2018-06-23T17:52:27.498Z,93.90
2018-06-23T17:54:56.233Z,93.90
2018-06-23T17:57:25.100Z,94.10
2018-06-23T17:59:53.752Z,93.90
2018-06-23T18:02:22.525Z,93.70
2018-06-23T18:04:51.281Z,94.10
2018-06-23T18:07:20.025Z,93.50
2018-06-23T18:09:49.332Z,93.50
2018-06-23T18:12:18.169Z,93.40
2018-06-23T18:14:46.849Z,93.50
2018-06-23T18:17:15.620Z,93.40
2018-06-23T18:19:44.368Z,94.00
2018-06-23T18:22:13.145Z,94.00
2018-06-23T18:24:42.017Z,94.40
2018-06-23T18:27:10.970Z,94.30
2018-06-23T18:29:39.725Z,93.90
2018-06-23T18:32:08.532Z,94.50
2018-06-23T18:34:37.288Z,94.40
2018-06-23T18:37:06.081Z,94.20
2018-06-23T18:39:34.840Z,94.00
2018-06-23T18:42:03.605Z,94.20
2018-06-23T18:44:32.499Z,94.40
2018-06-23T18:47:01.258Z,94.60
2018-06-23T18:49:30.153Z,94.70
2018-06-23T18:51:58.945Z,94.30
2018-06-23T18:54:27.697Z,94.20
2018-06-23T18:56:56.638Z,94.10
2018-06-23T18:59:25.402Z,94.50
2018-06-23T19:01:54.192Z,94.60
2018-06-23T19:04:22.945Z,94.70
2018-06-23T19:06:51.744Z,94.40
2018-06-23T19:09:20.554Z,94.40
2018-06-23T19:11:49.274Z,94.40
2018-06-23T19:14:19.842Z,94.60
2018-06-23T19:16:48.613Z,94.40
2018-06-23T19:19:17.512Z,94.60
2018-06-23T19:21:46.280Z,94.60
2018-06-23T19:24:15.019Z,94.90
2018-06-23T19:26:43.805Z,94.90
2018-06-23T19:29:12.557Z,94.60
2018-06-23T19:31:41.325Z,94.40
2018-06-23T19:34:10.089Z,95.10
2018-06-23T19:36:38.837Z,95.20
2018-06-23T19:39:09.089Z,95.10
2018-06-23T19:41:37.849Z,95.00
2018-06-23T19:44:06.664Z,94.70
2018-06-23T19:46:35.413Z,94.80
2018-06-23T19:49:04.202Z,94.90
2018-06-23T19:51:32.970Z,94.90
2018-06-23T19:54:01.723Z,95.30
2018-06-23T19:56:30.478Z,94.80
2018-06-23T19:58:59.288Z,95.10
2018-06-23T20:01:28.058Z,94.90
2018-06-23T20:03:56.834Z,95.20
2018-06-23T20:06:25.640Z,95.30
2018-06-23T20:08:54.405Z,95.20
2018-06-23T20:11:23.344Z,95.20
2018-06-23T20:13:52.133Z,95.20
2018-06-23T20:16:20.892Z,95.40
2018-06-23T20:18:49.652Z,95.30
2018-06-23T20:21:18.493Z,95.20
2018-06-23T20:23:47.265Z,95.50
2018-06-23T20:26:16.025Z,96.00
2018-06-23T20:28:44.812Z,95.90
2018-06-23T20:31:13.585Z,96.10
2018-06-23T20:33:42.352Z,95.80
2018-06-23T20:36:11.201Z,95.70
2018-06-23T20:38:39.981Z,95.70
2018-06-23T20:41:08.764Z,95.60
2018-06-23T20:43:37.553Z,95.20
2018-06-23T20:46:06.436Z,95.20
2018-06-23T20:48:35.245Z,95.10
2018-06-23T20:51:04.097Z,94.70
2018-06-23T20:53:32.862Z,94.90
2018-06-23T20:56:01.677Z,94.90
2018-06-23T20:58:30.481Z,95.10
2018-06-23T21:00:59.429Z,95.00
2018-06-23T21:03:28.325Z,95.10
2018-06-23T21:05:57.097Z,95.10
2018-06-23T21:08:25.930Z,95.30
2018-06-23T21:10:54.787Z,95.10
2018-06-23T21:13:23.545Z,95.10
2018-06-23T21:15:52.315Z,94.80
2018-06-23T21:18:21.093Z,94.90
2018-06-23T21:20:49.853Z,95.10
2018-06-23T21:23:18.605Z,95.20
2018-06-23T21:25:47.401Z,95.40
2018-06-23T21:28:16.173Z,95.30
2018-06-23T21:30:45.038Z,95.20
2018-06-23T21:33:13.746Z,95.40
2018-06-23T21:35:43.393Z,95.10
2018-06-23T21:38:18.721Z,95.60
2018-06-23T21:40:47.746Z,95.60
2018-06-23T21:43:16.560Z,95.90
2018-06-23T21:45:45.284Z,96.30
2018-06-23T21:48:14.037Z,96.30
2018-06-23T21:50:42.812Z,95.80
2018-06-23T21:53:11.611Z,96.10
2018-06-23T21:55:40.356Z,96.20
2018-06-23T21:58:09.204Z,95.90
2018-06-23T22:00:41.481Z,95.90
2018-06-23T22:03:11.409Z,95.90
2018-06-23T22:05:40.333Z,95.80
2018-06-23T22:08:09.445Z,95.90
2018-06-23T22:10:38.265Z,95.80
2018-06-23T22:13:07.052Z,96.00
2018-06-23T22:15:36.000Z,96.00
2018-06-23T22:18:04.790Z,96.10
2018-06-23T22:20:33.575Z,96.10
2018-06-23T22:23:02.344Z,95.80
2018-06-23T22:27:59.757Z,96.10
2018-06-23T22:30:28.561Z,95.90
2018-06-23T22:32:57.436Z,96.00
2018-06-23T22:35:26.217Z,96.20
2018-06-23T22:37:54.973Z,96.30
2018-06-23T22:42:52.521Z,95.90
2018-06-23T22:45:21.436Z,96.00
2018-06-23T22:50:18.676Z,96.10
2018-06-23T22:52:47.449Z,95.90
2018-06-23T22:55:16.212Z,96.20
2018-06-23T22:57:44.974Z,96.20
2018-06-23T23:00:14.601Z,96.10
2018-06-23T23:02:43.990Z,96.50
2018-06-23T23:07:41.661Z,96.20
2018-06-23T23:10:11.132Z,96.10
2018-06-23T23:12:40.264Z,96.00
2018-06-23T23:17:37.740Z,96.50
2018-06-23T23:22:35.131Z,96.90
2018-06-23T23:27:32.416Z,96.40
2018-06-23T23:30:01.182Z,96.40
2018-06-23T23:32:29.953Z,96.50
2018-06-23T23:34:58.729Z,96.70
2018-06-23T23:37:27.504Z,96.70
2018-06-23T23:39:56.257Z,96.70
2018-06-23T23:42:25.022Z,97.20
2018-06-23T23:44:53.780Z,97.50
2018-06-23T23:47:22.557Z,97.10
2018-06-23T23:49:51.316Z,97.20
2018-06-23T23:52:20.314Z,97.40
2018-06-23T23:54:49.090Z,97.10
2018-06-23T23:57:17.865Z,97.00
2018-06-23T23:59:46.678Z,97.00
